createdAt,value
2022-10-24T00:00:15.426Z,1.20
2022-10-24T00:02:46.132Z,1.20
2022-10-24T00:05:16.024Z,1.20
2022-10-24T00:07:45.878Z,0.87
2022-10-24T00:10:16.909Z,0.97
2022-10-24T00:12:47.320Z,0.80
2022-10-24T00:15:17.325Z,0.60
2022-10-24T00:17:46.780Z,0.53
2022-10-24T00:20:16.221Z,0.90
2022-10-24T00:22:46.971Z,0.80
2022-10-24T00:25:17.040Z,0.83
2022-10-24T00:27:46.512Z,0.60
2022-10-24T00:30:16.018Z,0.90
2022-10-24T00:32:45.994Z,0.90
2022-10-24T00:35:15.613Z,0.80
2022-10-24T00:37:45.608Z,1.00
2022-10-24T00:40:19.507Z,1.00
2022-10-24T00:42:50.485Z,0.67
2022-10-24T00:45:46.712Z,0.60
2022-10-24T00:48:40.215Z,0.67
2022-10-24T00:51:26.101Z,0.87
2022-10-24T00:54:03.359Z,0.70
2022-10-24T00:56:40.764Z,0.97
2022-10-24T00:59:13.681Z,0.70
2022-10-24T01:01:45.985Z,0.80
2022-10-24T01:04:15.638Z,0.90
2022-10-24T01:07:04.586Z,0.90
2022-10-24T01:10:11.404Z,0.70
2022-10-24T01:13:05.897Z,0.73
2022-10-24T01:16:01.130Z,0.50
2022-10-24T01:21:37.047Z,0.60
2022-10-24T01:24:33.800Z,0.80
2022-10-24T01:27:28.639Z,0.70
2022-10-24T01:30:16.739Z,0.70
2022-10-24T01:33:13.782Z,0.70
2022-10-24T01:36:02.805Z,0.60
2022-10-24T01:38:45.528Z,0.70
2022-10-24T01:41:28.852Z,0.60
2022-10-24T01:44:05.780Z,0.70
2022-10-24T01:46:39.848Z,0.70
2022-10-24T01:49:19.825Z,0.70
2022-10-24T01:51:54.123Z,0.70
2022-10-24T01:54:23.900Z,0.80
2022-10-24T01:56:53.942Z,0.47
2022-10-24T01:59:33.984Z,0.50
2022-10-24T02:02:08.045Z,0.50
2022-10-24T02:04:42.142Z,0.40
2022-10-24T02:07:14.995Z,0.43
2022-10-24T02:09:48.893Z,0.50
2022-10-24T02:12:21.951Z,0.50
2022-10-24T02:14:55.996Z,0.63
2022-10-24T02:17:26.297Z,0.50
2022-10-24T02:19:56.065Z,0.50
2022-10-24T02:22:47.965Z,0.50
2022-10-24T02:25:40.013Z,0.50
2022-10-24T02:28:22.682Z,0.53
2022-10-24T02:31:08.425Z,0.40
2022-10-24T02:33:41.902Z,0.40
2022-10-24T02:36:15.167Z,0.60
2022-10-24T02:38:48.694Z,0.40
2022-10-24T02:41:22.766Z,0.40
2022-10-24T02:43:54.229Z,0.50
2022-10-24T02:46:25.507Z,0.57
2022-10-24T02:49:04.277Z,0.50
2022-10-24T02:51:38.579Z,0.50
2022-10-24T02:54:11.062Z,0.40
2022-10-24T02:56:47.541Z,0.50
2022-10-24T02:59:16.978Z,0.40
2022-10-24T03:01:46.478Z,0.50
2022-10-24T03:04:15.881Z,0.53
2022-10-24T03:06:45.846Z,0.60
2022-10-24T03:09:15.373Z,0.50
2022-10-24T03:11:44.832Z,0.60
2022-10-24T03:14:14.359Z,0.57
2022-10-24T03:16:43.818Z,0.40
2022-10-24T03:19:13.295Z,0.50
2022-10-24T03:21:42.812Z,0.40
2022-10-24T03:24:12.700Z,0.73
2022-10-24T03:26:42.224Z,0.80
2022-10-24T03:29:14.174Z,0.70
2022-10-24T03:31:43.702Z,0.30
2022-10-24T03:34:13.205Z,0.47
2022-10-24T03:36:42.889Z,0.50
2022-10-24T03:39:12.657Z,0.50
2022-10-24T03:41:42.170Z,0.60
2022-10-24T03:44:11.693Z,0.43
2022-10-24T03:46:41.289Z,0.40
2022-10-24T03:49:10.860Z,0.50
2022-10-24T03:51:40.368Z,0.50
2022-10-24T03:54:11.168Z,0.47
2022-10-24T03:56:40.693Z,0.50
2022-10-24T03:59:10.323Z,0.40
2022-10-24T04:01:40.167Z,0.50
2022-10-24T04:04:10.404Z,0.60
2022-10-24T04:06:40.692Z,0.50
2022-10-24T04:09:10.428Z,0.30
2022-10-24T04:11:40.388Z,0.40
2022-10-24T04:14:10.915Z,0.50
2022-10-24T04:16:40.495Z,0.40
2022-10-24T04:19:10.861Z,0.40
2022-10-24T04:21:40.532Z,0.30
2022-10-24T04:24:10.066Z,0.30
2022-10-24T04:26:39.589Z,0.50
2022-10-24T04:29:09.191Z,0.47
2022-10-24T04:31:38.719Z,0.40
2022-10-24T04:34:08.291Z,0.40
2022-10-24T04:36:37.802Z,0.40
2022-10-24T04:39:07.810Z,0.20
2022-10-24T04:41:56.687Z,0.43
2022-10-24T04:44:26.181Z,0.30
2022-10-24T04:46:55.694Z,0.30
2022-10-24T04:49:25.229Z,0.30
2022-10-24T04:51:54.766Z,0.33
2022-10-24T04:54:24.297Z,0.30
2022-10-24T04:56:53.825Z,0.60
2022-10-24T04:59:23.343Z,0.53
2022-10-24T05:01:54.754Z,0.40
2022-10-24T05:04:24.287Z,0.37
2022-10-24T05:06:53.807Z,0.40
2022-10-24T05:09:23.313Z,0.60
2022-10-24T05:11:54.483Z,0.70
2022-10-24T05:14:24.361Z,0.60
2022-10-24T05:16:53.888Z,0.40
2022-10-24T05:19:23.396Z,0.47
2022-10-24T05:21:52.910Z,0.40
2022-10-24T05:24:22.596Z,0.53
2022-10-24T05:26:52.102Z,0.50
2022-10-24T05:29:21.621Z,0.60
2022-10-24T05:31:51.144Z,0.60
2022-10-24T05:34:20.636Z,0.67
2022-10-24T05:36:55.030Z,0.50
2022-10-24T05:39:24.521Z,0.73
2022-10-24T05:41:55.355Z,0.40
2022-10-24T05:44:25.199Z,0.70
2022-10-24T05:46:54.804Z,0.60
2022-10-24T05:49:43.609Z,0.70
2022-10-24T05:52:13.053Z,0.60
2022-10-24T05:54:55.012Z,0.67
2022-10-24T05:57:13.695Z,0.50
2022-10-24T05:59:43.201Z,0.30
2022-10-24T06:02:22.066Z,0.60
2022-10-24T06:04:52.106Z,0.70
2022-10-24T06:07:21.560Z,1.40
2022-10-24T06:09:51.989Z,1.00
2022-10-24T06:12:21.517Z,0.80
2022-10-24T06:14:51.219Z,0.60
2022-10-24T06:17:20.683Z,0.70
2022-10-24T06:19:51.026Z,0.70
2022-10-24T06:22:23.219Z,0.50
2022-10-24T06:24:52.848Z,0.30
2022-10-24T06:27:22.448Z,0.60
2022-10-24T06:29:51.887Z,0.87
2022-10-24T06:32:21.350Z,0.50
2022-10-24T06:35:12.127Z,0.60
2022-10-24T06:37:44.410Z,0.30
2022-10-24T06:40:13.284Z,0.50
2022-10-24T06:42:42.769Z,0.67
2022-10-24T06:45:12.524Z,0.40
2022-10-24T06:47:42.132Z,0.50
2022-10-24T06:50:11.646Z,0.40
2022-10-24T06:52:41.145Z,0.43
2022-10-24T06:55:11.056Z,0.50
2022-10-24T06:57:40.584Z,0.50
2022-10-24T07:00:14.185Z,0.53
2022-10-24T07:02:43.961Z,0.60
2022-10-24T07:05:14.535Z,0.90
2022-10-24T07:07:45.876Z,0.70
2022-10-24T07:10:16.993Z,0.60
2022-10-24T07:12:46.891Z,1.00
2022-10-24T07:15:16.530Z,0.90
2022-10-24T07:17:46.956Z,0.70
2022-10-24T07:20:16.559Z,0.60
2022-10-24T07:22:46.369Z,0.47
2022-10-24T07:25:16.664Z,0.87
2022-10-24T07:27:46.210Z,0.73
2022-10-24T07:30:18.539Z,0.70
2022-10-24T07:32:48.783Z,0.70
2022-10-24T07:35:18.217Z,1.27
2022-10-24T07:37:47.892Z,1.40
2022-10-24T07:40:17.939Z,0.70
2022-10-24T07:42:48.588Z,0.90
2022-10-24T07:45:18.107Z,0.90
2022-10-24T07:47:48.683Z,0.73
2022-10-24T07:50:18.172Z,1.13
2022-10-24T07:52:47.634Z,0.80
2022-10-24T07:55:17.230Z,0.40
2022-10-24T07:57:47.251Z,0.80
2022-10-24T08:00:17.800Z,1.00
2022-10-24T08:05:19.430Z,0.73
2022-10-24T08:07:56.230Z,0.80
2022-10-24T08:10:19.797Z,0.70
2022-10-24T08:12:49.245Z,0.67
2022-10-24T08:15:18.818Z,1.30
2022-10-24T08:17:48.268Z,1.10
2022-10-24T08:20:17.820Z,0.80
2022-10-24T08:22:47.579Z,0.90
2022-10-24T08:25:17.437Z,0.97
2022-10-24T08:27:46.896Z,1.00
2022-10-24T08:30:17.554Z,0.90
2022-10-24T08:32:47.271Z,1.00
2022-10-24T08:35:22.038Z,1.10
2022-10-24T08:37:51.520Z,1.30
2022-10-24T08:40:22.177Z,1.00
2022-10-24T08:42:51.842Z,0.90
2022-10-24T08:45:31.745Z,1.20
2022-10-24T08:48:08.324Z,1.13
2022-10-24T08:50:40.056Z,0.90
2022-10-24T08:53:31.803Z,0.90
2022-10-24T08:56:03.381Z,0.90
2022-10-24T08:58:37.431Z,0.83
2022-10-24T09:01:18.160Z,0.80
2022-10-24T09:03:56.970Z,1.10
2022-10-24T09:06:27.831Z,1.00
2022-10-24T09:09:05.075Z,1.73
2022-10-24T09:11:59.628Z,1.67
2022-10-24T09:14:39.081Z,1.20
2022-10-24T09:17:22.326Z,0.90
2022-10-24T09:19:59.539Z,0.73
2022-10-24T09:22:33.519Z,0.90
2022-10-24T09:25:19.478Z,0.90
2022-10-24T09:27:49.563Z,1.00
2022-10-24T09:30:30.100Z,0.80
2022-10-24T09:33:01.959Z,1.00
2022-10-24T09:35:34.263Z,1.00
2022-10-24T09:38:33.525Z,0.90
2022-10-24T09:41:25.850Z,1.00
2022-10-24T09:44:01.657Z,0.57
2022-10-24T09:46:43.526Z,1.20
2022-10-24T09:49:26.237Z,0.77
2022-10-24T09:52:21.624Z,0.93
2022-10-24T09:55:07.516Z,0.83
2022-10-24T09:57:41.905Z,0.50
2022-10-24T10:00:39.099Z,0.90
2022-10-24T10:03:24.415Z,0.60
2022-10-24T10:06:00.712Z,1.00
2022-10-24T10:08:34.641Z,1.20
2022-10-24T10:11:12.290Z,1.00
2022-10-24T10:13:53.386Z,0.90
2022-10-24T10:16:33.911Z,1.10
2022-10-24T10:19:08.125Z,0.80
2022-10-24T10:22:00.252Z,1.20
2022-10-24T10:24:46.125Z,1.30
2022-10-24T10:27:39.593Z,1.30
2022-10-24T10:30:20.131Z,1.30
2022-10-24T10:33:13.747Z,1.07
2022-10-24T10:35:59.682Z,0.83
2022-10-24T10:38:51.995Z,0.70
2022-10-24T10:41:29.049Z,0.60
2022-10-24T10:44:29.010Z,0.50
2022-10-24T10:47:11.730Z,1.00
2022-10-24T10:49:43.217Z,0.80
2022-10-24T10:52:35.228Z,0.90
2022-10-24T10:55:34.019Z,1.23
2022-10-24T10:58:34.637Z,1.00
2022-10-24T11:01:13.980Z,0.90
2022-10-24T11:03:53.315Z,1.10
2022-10-24T11:06:42.006Z,0.93
2022-10-24T11:09:18.612Z,1.00
2022-10-24T11:12:01.745Z,1.10
2022-10-24T11:14:41.545Z,1.17
2022-10-24T11:17:33.126Z,1.10
2022-10-24T11:20:12.878Z,1.23
2022-10-24T11:23:10.252Z,1.50
2022-10-24T11:25:47.115Z,1.80
2022-10-24T11:28:33.083Z,1.70
2022-10-24T11:31:15.238Z,1.63
2022-10-24T11:33:49.544Z,1.47
2022-10-24T11:36:56.074Z,1.10
2022-10-24T11:39:39.273Z,1.00
2022-10-24T11:42:48.345Z,1.03
2022-10-24T11:45:22.760Z,0.97
2022-10-24T11:47:59.442Z,1.40
2022-10-24T11:50:42.080Z,0.97
2022-10-24T11:53:34.342Z,1.07
2022-10-24T11:56:23.643Z,1.10
2022-10-24T11:59:07.022Z,0.90
2022-10-24T12:01:45.643Z,0.90
2022-10-24T12:04:28.224Z,1.00
2022-10-24T12:07:19.806Z,0.87
2022-10-24T12:10:19.897Z,1.07
2022-10-24T12:12:59.601Z,1.27
2022-10-24T12:15:57.569Z,1.03
2022-10-24T12:18:31.972Z,0.90
2022-10-24T12:21:11.962Z,1.17
2022-10-24T12:23:43.931Z,1.00
2022-10-24T12:26:20.639Z,0.70
2022-10-24T12:29:00.647Z,0.87
2022-10-24T12:31:37.428Z,0.67
2022-10-24T12:34:25.007Z,1.10
2022-10-24T12:37:12.294Z,0.90
2022-10-24T12:39:47.671Z,1.47
2022-10-24T12:42:32.040Z,1.82
2022-10-24T12:45:09.008Z,1.20
2022-10-24T12:47:44.767Z,1.20
2022-10-24T12:50:28.840Z,1.30
2022-10-24T12:53:21.348Z,0.90
2022-10-24T12:56:01.152Z,0.83
2022-10-24T12:58:40.685Z,0.60
2022-10-24T13:01:27.659Z,0.90
2022-10-24T13:04:22.354Z,0.77
2022-10-24T13:07:11.618Z,0.80
2022-10-24T13:10:09.804Z,0.70
2022-10-24T13:13:16.679Z,0.50
2022-10-24T13:16:08.070Z,0.60
2022-10-24T13:18:50.857Z,0.70
2022-10-24T13:21:41.065Z,0.70
2022-10-24T13:24:27.196Z,0.63
2022-10-24T13:27:11.713Z,0.60
2022-10-24T13:29:44.019Z,1.20
2022-10-24T13:32:20.084Z,0.50
2022-10-24T13:34:53.858Z,0.50
2022-10-24T13:37:33.182Z,1.00
2022-10-24T13:40:34.192Z,0.60
2022-10-24T13:43:10.679Z,0.70
2022-10-24T13:46:02.544Z,0.50
2022-10-24T13:48:35.943Z,0.70
2022-10-24T13:51:28.077Z,0.70
2022-10-24T13:54:11.461Z,0.80
2022-10-24T13:56:44.301Z,0.60
2022-10-24T13:59:34.425Z,0.63
2022-10-24T14:02:08.630Z,0.70
2022-10-24T14:04:39.825Z,0.50
2022-10-24T14:07:10.491Z,0.60
2022-10-24T14:09:45.032Z,0.53
2022-10-24T14:12:24.153Z,0.43
2022-10-24T14:14:56.394Z,0.63
2022-10-24T14:17:35.811Z,0.70
2022-10-24T14:20:21.629Z,0.45
2022-10-24T14:22:51.066Z,0.63
2022-10-24T14:25:36.765Z,0.70
2022-10-24T14:28:21.549Z,0.60
2022-10-24T14:31:04.492Z,0.80
2022-10-24T14:33:43.646Z,0.73
2022-10-24T14:36:14.401Z,0.47
2022-10-24T14:38:44.365Z,0.40
2022-10-24T14:41:14.224Z,0.60
2022-10-24T14:43:45.687Z,0.40
2022-10-24T14:46:24.843Z,0.50
2022-10-24T14:48:51.684Z,0.47
2022-10-24T14:51:40.686Z,0.80
2022-10-24T14:54:23.620Z,0.60
2022-10-24T14:56:54.570Z,0.60
2022-10-24T14:59:32.944Z,0.60
2022-10-24T15:02:23.767Z,0.40
2022-10-24T15:04:55.592Z,0.57
2022-10-24T15:07:32.092Z,0.50
2022-10-24T15:10:14.800Z,0.50
2022-10-24T15:12:54.755Z,0.53
2022-10-24T15:15:34.858Z,0.50
2022-10-24T15:18:17.702Z,0.30
2022-10-24T15:20:51.557Z,1.07
2022-10-24T15:23:37.770Z,0.80
2022-10-24T15:26:14.383Z,1.00
2022-10-24T15:29:11.089Z,0.50
2022-10-24T15:31:44.240Z,0.90
2022-10-24T15:34:20.832Z,0.73
2022-10-24T15:36:52.593Z,0.73
2022-10-24T15:39:25.863Z,0.50
2022-10-24T15:41:55.557Z,0.67
2022-10-24T15:44:29.586Z,0.50
2022-10-24T15:46:59.115Z,0.77
2022-10-24T15:49:29.109Z,0.60
2022-10-24T15:51:59.797Z,0.60
2022-10-24T15:54:29.719Z,0.70
2022-10-24T15:57:02.825Z,0.40
2022-10-24T15:59:30.345Z,0.50
2022-10-24T16:02:03.580Z,0.60
2022-10-24T16:04:33.933Z,0.47
2022-10-24T16:07:03.448Z,0.60
2022-10-24T16:09:32.905Z,0.63
2022-10-24T16:12:02.345Z,0.70
2022-10-24T16:14:31.874Z,0.50
2022-10-24T16:17:01.860Z,0.80
2022-10-24T16:19:31.308Z,0.93
2022-10-24T16:22:01.527Z,0.72
2022-10-24T16:24:31.052Z,0.50
2022-10-24T16:27:00.495Z,0.70
2022-10-24T16:29:30.832Z,0.90
2022-10-24T16:32:00.255Z,0.70
2022-10-24T16:34:29.709Z,0.60
2022-10-24T16:36:59.158Z,0.63
2022-10-24T16:39:28.646Z,0.80
2022-10-24T16:41:59.535Z,0.87
2022-10-24T16:44:28.992Z,0.57
2022-10-24T16:46:58.438Z,0.77
2022-10-24T16:49:28.456Z,3.70
2022-10-24T16:51:58.843Z,2.60
2022-10-24T16:54:28.291Z,3.37
2022-10-24T16:56:57.747Z,2.50
2022-10-24T16:59:28.669Z,1.90
2022-10-24T17:01:58.189Z,2.73
2022-10-24T17:04:31.441Z,2.03
2022-10-24T17:06:59.018Z,2.10
2022-10-24T17:09:28.461Z,1.53
2022-10-24T17:11:59.642Z,1.60
2022-10-24T17:14:30.604Z,1.97
2022-10-24T17:17:00.191Z,1.37
2022-10-24T17:19:30.618Z,1.80
2022-10-24T17:22:00.129Z,1.27
2022-10-24T17:24:29.798Z,0.90
2022-10-24T17:26:59.248Z,1.33
2022-10-24T17:29:34.880Z,0.70
2022-10-24T17:32:05.794Z,0.90
2022-10-24T17:34:36.187Z,1.07
2022-10-24T17:37:27.596Z,1.17
2022-10-24T17:40:04.524Z,1.30
2022-10-24T17:42:34.483Z,0.90
2022-10-24T17:45:04.277Z,1.07
2022-10-24T17:47:33.777Z,0.70
2022-10-24T17:50:03.258Z,1.30
2022-10-24T17:52:32.696Z,1.13
2022-10-24T17:55:02.158Z,0.70
2022-10-24T17:57:31.596Z,0.80
2022-10-24T18:00:01.539Z,0.97
2022-10-24T18:02:30.966Z,0.83
2022-10-24T18:05:00.431Z,0.83
2022-10-24T18:07:29.866Z,0.80
2022-10-24T18:10:00.577Z,0.90
2022-10-24T18:12:30.021Z,0.90
2022-10-24T18:14:59.770Z,0.80
2022-10-24T18:17:30.413Z,0.60
2022-10-24T18:19:59.957Z,0.50
2022-10-24T18:22:32.675Z,0.70
2022-10-24T18:25:02.973Z,0.70
2022-10-24T18:27:32.880Z,0.77
2022-10-24T18:30:02.847Z,0.73
2022-10-24T18:32:32.523Z,0.60
2022-10-24T18:35:02.063Z,0.60
2022-10-24T18:37:32.438Z,0.40
2022-10-24T18:40:02.065Z,0.77
2022-10-24T18:42:48.000Z,0.80
2022-10-24T18:45:24.867Z,0.70
2022-10-24T18:47:55.808Z,0.90
2022-10-24T18:50:26.944Z,0.50
2022-10-24T18:53:21.397Z,0.63
2022-10-24T18:55:47.797Z,0.80
2022-10-24T18:58:20.101Z,0.93
2022-10-24T19:00:50.423Z,1.00
2022-10-24T19:03:33.694Z,0.73
2022-10-24T19:06:19.917Z,0.80
2022-10-24T19:08:49.371Z,0.70
2022-10-24T19:11:18.975Z,0.80
2022-10-24T19:13:48.593Z,1.00
2022-10-24T19:16:28.689Z,0.63
2022-10-24T19:18:59.698Z,0.80
2022-10-24T19:21:29.555Z,0.53
2022-10-24T19:23:59.172Z,0.60
2022-10-24T19:26:28.683Z,0.40
2022-10-24T19:29:01.036Z,1.20
2022-10-24T19:31:29.330Z,0.97
2022-10-24T19:33:58.781Z,0.50
2022-10-24T19:36:28.259Z,0.53
2022-10-24T19:38:58.597Z,1.00
2022-10-24T19:41:28.093Z,0.50
2022-10-24T19:43:57.654Z,0.60
2022-10-24T19:46:27.210Z,0.70
2022-10-24T19:48:56.723Z,0.87
2022-10-24T19:51:26.199Z,1.00
2022-10-24T19:53:57.143Z,0.90
2022-10-24T19:56:29.088Z,0.70
2022-10-24T19:58:58.818Z,0.63
2022-10-24T20:01:31.200Z,0.80
2022-10-24T20:04:02.599Z,0.40
2022-10-24T20:06:32.149Z,0.50
2022-10-24T20:09:02.610Z,0.60
2022-10-24T20:11:32.153Z,0.40
2022-10-24T20:14:01.669Z,0.50
2022-10-24T20:16:32.218Z,0.50
2022-10-24T20:19:01.961Z,0.50
2022-10-24T20:21:33.585Z,0.50
2022-10-24T20:24:03.381Z,0.40
2022-10-24T20:26:33.725Z,0.40
2022-10-24T20:29:03.980Z,0.40
2022-10-24T20:31:40.329Z,0.27
2022-10-24T20:34:10.566Z,0.43
2022-10-24T20:36:44.563Z,0.30
2022-10-24T20:39:16.152Z,0.43
2022-10-24T20:41:48.047Z,0.50
2022-10-24T20:44:17.432Z,0.30
2022-10-24T20:46:47.169Z,0.37
2022-10-24T20:49:16.686Z,0.30
2022-10-24T20:51:46.150Z,0.30
2022-10-24T20:54:15.651Z,0.60
2022-10-24T20:56:45.168Z,0.30
2022-10-24T20:59:17.064Z,0.50
2022-10-24T21:01:46.725Z,0.30
2022-10-24T21:04:19.895Z,0.40
2022-10-24T21:06:47.537Z,0.40
2022-10-24T21:09:17.046Z,0.30
2022-10-24T21:11:46.510Z,0.33
2022-10-24T21:14:17.650Z,0.43
2022-10-24T21:16:47.695Z,0.33
2022-10-24T21:19:17.181Z,0.40
2022-10-24T21:21:46.746Z,0.60
2022-10-24T21:24:18.653Z,0.40
2022-10-24T21:26:48.130Z,0.40
2022-10-24T21:29:34.162Z,0.30
2022-10-24T21:31:50.751Z,0.30
2022-10-24T21:34:21.390Z,0.40
2022-10-24T21:36:51.028Z,0.40
2022-10-24T21:39:20.578Z,0.40
2022-10-24T21:41:50.080Z,0.50
2022-10-24T21:44:21.220Z,0.40
2022-10-24T21:46:54.547Z,0.40
2022-10-24T21:49:25.753Z,0.30
2022-10-24T21:51:55.202Z,0.30
2022-10-24T21:54:26.796Z,0.50
2022-10-24T21:56:56.328Z,0.40
2022-10-24T21:59:25.829Z,0.40
2022-10-24T22:01:55.497Z,0.43
2022-10-24T22:04:25.083Z,0.27
2022-10-24T22:06:55.187Z,0.50
2022-10-24T22:09:24.953Z,0.40
2022-10-24T22:11:59.226Z,0.40
2022-10-24T22:14:29.085Z,0.70
2022-10-24T22:16:58.632Z,0.40
2022-10-24T22:19:28.186Z,0.40
2022-10-24T22:21:57.669Z,0.23
2022-10-24T22:24:27.164Z,0.37
2022-10-24T22:26:56.643Z,0.40
2022-10-24T22:29:26.658Z,0.30
2022-10-24T22:31:56.550Z,0.20
2022-10-24T22:34:28.411Z,0.50
2022-10-24T22:37:28.010Z,0.33
2022-10-24T22:39:57.803Z,0.30
2022-10-24T22:42:27.424Z,0.50
2022-10-24T22:44:57.223Z,0.30
2022-10-24T22:47:59.946Z,0.47
2022-10-24T22:50:57.188Z,0.30
2022-10-24T22:53:30.697Z,0.30
2022-10-24T22:56:19.761Z,0.47
2022-10-24T22:58:50.067Z,0.40
2022-10-24T23:01:52.916Z,0.40
2022-10-24T23:04:38.613Z,0.40
2022-10-24T23:07:36.680Z,0.30
2022-10-24T23:10:09.932Z,0.40
2022-10-24T23:12:39.822Z,0.30
2022-10-24T23:15:14.687Z,0.27
2022-10-24T23:17:46.068Z,0.50
2022-10-24T23:20:28.943Z,0.33
2022-10-24T23:23:09.567Z,0.40
2022-10-24T23:25:32.121Z,0.30
2022-10-24T23:28:24.503Z,0.20
2022-10-24T23:30:54.417Z,0.30
2022-10-24T23:33:28.086Z,0.30
2022-10-24T23:36:00.554Z,0.50
2022-10-24T23:38:30.262Z,0.43
2022-10-24T23:41:00.044Z,0.30
2022-10-24T23:43:29.491Z,0.20
2022-10-24T23:46:12.182Z,0.60
2022-10-24T23:48:55.133Z,0.43
2022-10-24T23:51:40.876Z,0.40
2022-10-24T23:54:16.547Z,0.40
2022-10-24T23:56:46.208Z,0.50
2022-10-24T23:59:15.701Z,0.30
